sensor_id;sensor_type;location;lat;lon;timestamp;temperature;humidity
7216;DHT22;3649;48.798;9.798;2023-04-24T00:01:07;15.40;99.90
7216;DHT22;3649;48.798;9.798;2023-04-24T00:03:36;15.30;99.90
7216;DHT22;3649;48.798;9.798;2023-04-24T00:06:04;15.40;99.90
7216;DHT22;3649;48.798;9.798;2023-04-24T00:08:31;15.30;99.90
7216;DHT22;3649;48.798;9.798;2023-04-24T00:10:58;15.40;99.90
7216;DHT22;3649;48.798;9.798;2023-04-24T00:13:26;15.30;99.90
7216;DHT22;3649;48.798;9.798;2023-04-24T00:15:55;15.30;99.90
7216;DHT22;3649;48.798;9.798;2023-04-24T00:18:22;15.30;99.90
7216;DHT22;3649;48.798;9.798;2023-04-24T00:20:49;15.30;99.90
7216;DHT22;3649;48.798;9.798;2023-04-24T00:23:16;15.30;99.90
7216;DHT22;3649;48.798;9.798;2023-04-24T00:25:43;15.30;99.90
7216;DHT22;3649;48.798;9.798;2023-04-24T00:28:09;15.20;99.90
7216;DHT22;3649;48.798;9.798;2023-04-24T00:30:36;15.50;99.90
7216;DHT22;3649;48.798;9.798;2023-04-24T00:33:03;15.20;99.90
7216;DHT22;3649;48.798;9.798;2023-04-24T00:35:30;15.30;99.90
7216;DHT22;3649;48.798;9.798;2023-04-24T00:37:57;15.20;99.90
7216;DHT22;3649;48.798;9.798;2023-04-24T00:40:24;15.20;99.90
7216;DHT22;3649;48.798;9.798;2023-04-24T00:42:50;15.10;99.90
7216;DHT22;3649;48.798;9.798;2023-04-24T00:45:17;15.20;99.90
7216;DHT22;3649;48.798;9.798;2023-04-24T00:47:45;15.20;99.90
7216;DHT22;3649;48.798;9.798;2023-04-24T00:50:15;15.20;99.90
7216;DHT22;3649;48.798;9.798;2023-04-24T00:52:41;15.20;99.90
7216;DHT22;3649;48.798;9.798;2023-04-24T00:55:09;15.20;99.90
7216;DHT22;3649;48.798;9.798;2023-04-24T00:57:37;15.20;99.90
7216;DHT22;3649;48.798;9.798;2023-04-24T01:00:05;15.20;99.90
7216;DHT22;3649;48.798;9.798;2023-04-24T01:02:32;15.20;99.90
7216;DHT22;3649;48.798;9.798;2023-04-24T01:05:01;15.30;99.90
7216;DHT22;3649;48.798;9.798;2023-04-24T01:07:28;15.10;99.90
7216;DHT22;3649;48.798;9.798;2023-04-24T01:09:55;15.20;99.90
7216;DHT22;3649;48.798;9.798;2023-04-24T01:12:23;15.20;99.90
7216;DHT22;3649;48.798;9.798;2023-04-24T01:14:49;15.10;99.90
7216;DHT22;3649;48.798;9.798;2023-04-24T01:17:16;15.10;99.90
7216;DHT22;3649;48.798;9.798;2023-04-24T01:19:43;15.00;99.90
7216;DHT22;3649;48.798;9.798;2023-04-24T01:22:14;15.10;99.90
7216;DHT22;3649;48.798;9.798;2023-04-24T01:24:42;15.00;99.90
7216;DHT22;3649;48.798;9.798;2023-04-24T01:27:10;15.10;99.90
7216;DHT22;3649;48.798;9.798;2023-04-24T01:29:37;15.00;99.90
7216;DHT22;3649;48.798;9.798;2023-04-24T01:32:04;15.10;99.90
7216;DHT22;3649;48.798;9.798;2023-04-24T01:34:32;15.10;99.90
7216;DHT22;3649;48.798;9.798;2023-04-24T01:36:59;15.10;99.90
7216;DHT22;3649;48.798;9.798;2023-04-24T01:39:26;15.10;99.90
7216;DHT22;3649;48.798;9.798;2023-04-24T01:41:55;15.20;99.90
7216;DHT22;3649;48.798;9.798;2023-04-24T01:44:23;15.10;99.90
7216;DHT22;3649;48.798;9.798;2023-04-24T01:46:50;15.20;99.90
7216;DHT22;3649;48.798;9.798;2023-04-24T01:49:17;15.10;99.90
7216;DHT22;3649;48.798;9.798;2023-04-24T01:51:44;15.20;99.90
7216;DHT22;3649;48.798;9.798;2023-04-24T01:54:12;15.10;99.90
7216;DHT22;3649;48.798;9.798;2023-04-24T01:56:42;15.10;99.90
7216;DHT22;3649;48.798;9.798;2023-04-24T01:59:13;15.10;99.90
7216;DHT22;3649;48.798;9.798;2023-04-24T02:01:39;15.10;99.90
7216;DHT22;3649;48.798;9.798;2023-04-24T02:04:07;15.10;99.90
7216;DHT22;3649;48.798;9.798;2023-04-24T02:06:35;15.30;99.90
7216;DHT22;3649;48.798;9.798;2023-04-24T02:09:02;15.20;99.90
7216;DHT22;3649;48.798;9.798;2023-04-24T02:11:29;15.10;99.90
7216;DHT22;3649;48.798;9.798;2023-04-24T02:13:56;15.10;99.90
7216;DHT22;3649;48.798;9.798;2023-04-24T02:16:23;15.00;99.90
7216;DHT22;3649;48.798;9.798;2023-04-24T02:18:50;14.90;99.90
7216;DHT22;3649;48.798;9.798;2023-04-24T02:21:17;15.10;99.90
7216;DHT22;3649;48.798;9.798;2023-04-24T02:23:44;15.10;99.90
7216;DHT22;3649;48.798;9.798;2023-04-24T02:26:11;15.10;99.90
7216;DHT22;3649;48.798;9.798;2023-04-24T02:28:37;15.10;99.90
7216;DHT22;3649;48.798;9.798;2023-04-24T02:31:04;15.10;99.90
7216;DHT22;3649;48.798;9.798;2023-04-24T02:33:32;15.20;99.90
7216;DHT22;3649;48.798;9.798;2023-04-24T02:35:59;15.10;99.90
7216;DHT22;3649;48.798;9.798;2023-04-24T02:38:26;15.10;99.90
7216;DHT22;3649;48.798;9.798;2023-04-24T02:40:53;15.00;99.90
7216;DHT22;3649;48.798;9.798;2023-04-24T02:43:20;15.10;99.90
7216;DHT22;3649;48.798;9.798;2023-04-24T02:45:47;15.10;99.90
7216;DHT22;3649;48.798;9.798;2023-04-24T02:48:14;14.90;99.90
7216;DHT22;3649;48.798;9.798;2023-04-24T02:50:41;15.00;99.90
7216;DHT22;3649;48.798;9.798;2023-04-24T02:53:08;15.10;99.90
7216;DHT22;3649;48.798;9.798;2023-04-24T02:55:35;15.10;99.90
7216;DHT22;3649;48.798;9.798;2023-04-24T02:58:02;15.00;99.90
7216;DHT22;3649;48.798;9.798;2023-04-24T03:00:29;15.00;99.90
7216;DHT22;3649;48.798;9.798;2023-04-24T03:02:56;14.90;99.90
7216;DHT22;3649;48.798;9.798;2023-04-24T03:05:23;14.80;99.90
7216;DHT22;3649;48.798;9.798;2023-04-24T03:07:50;14.90;99.90
7216;DHT22;3649;48.798;9.798;2023-04-24T03:10:19;14.80;99.90
7216;DHT22;3649;48.798;9.798;2023-04-24T03:12:46;14.90;99.90
7216;DHT22;3649;48.798;9.798;2023-04-24T03:15:13;14.70;99.90
7216;DHT22;3649;48.798;9.798;2023-04-24T03:17:40;14.70;99.90
7216;DHT22;3649;48.798;9.798;2023-04-24T03:20:07;14.60;99.90
7216;DHT22;3649;48.798;9.798;2023-04-24T03:22:37;14.80;99.90
7216;DHT22;3649;48.798;9.798;2023-04-24T03:25:04;14.90;99.90
7216;DHT22;3649;48.798;9.798;2023-04-24T03:27:31;14.90;99.90
7216;DHT22;3649;48.798;9.798;2023-04-24T03:29:58;14.90;99.90
7216;DHT22;3649;48.798;9.798;2023-04-24T03:32:25;14.90;99.90
7216;DHT22;3649;48.798;9.798;2023-04-24T03:34:52;15.00;99.90
7216;DHT22;3649;48.798;9.798;2023-04-24T03:37:19;15.00;99.90
7216;DHT22;3649;48.798;9.798;2023-04-24T03:39:46;15.00;99.90
7216;DHT22;3649;48.798;9.798;2023-04-24T03:42:13;14.90;99.90
7216;DHT22;3649;48.798;9.798;2023-04-24T03:44:40;15.00;99.90
7216;DHT22;3649;48.798;9.798;2023-04-24T03:47:07;15.00;99.90
7216;DHT22;3649;48.798;9.798;2023-04-24T03:49:34;15.00;99.90
7216;DHT22;3649;48.798;9.798;2023-04-24T03:52:00;15.10;99.90
7216;DHT22;3649;48.798;9.798;2023-04-24T03:54:27;15.10;99.90
7216;DHT22;3649;48.798;9.798;2023-04-24T03:56:54;15.10;99.90
7216;DHT22;3649;48.798;9.798;2023-04-24T03:59:21;15.80;99.90
7216;DHT22;3649;48.798;9.798;2023-04-24T04:01:48;14.90;99.90
7216;DHT22;3649;48.798;9.798;2023-04-24T04:04:15;14.90;99.90
7216;DHT22;3649;48.798;9.798;2023-04-24T04:06:43;14.90;99.90
7216;DHT22;3649;48.798;9.798;2023-04-24T04:09:10;14.90;99.90
7216;DHT22;3649;48.798;9.798;2023-04-24T04:11:37;14.90;99.90
7216;DHT22;3649;48.798;9.798;2023-04-24T04:14:04;14.90;99.90
7216;DHT22;3649;48.798;9.798;2023-04-24T04:16:31;14.90;99.90
7216;DHT22;3649;48.798;9.798;2023-04-24T04:18:59;14.90;99.90
7216;DHT22;3649;48.798;9.798;2023-04-24T04:21:26;15.00;99.90
7216;DHT22;3649;48.798;9.798;2023-04-24T04:23:53;15.10;99.90
7216;DHT22;3649;48.798;9.798;2023-04-24T04:26:20;15.00;99.90
7216;DHT22;3649;48.798;9.798;2023-04-24T04:28:47;15.00;99.90
7216;DHT22;3649;48.798;9.798;2023-04-24T04:31:15;15.00;99.90
7216;DHT22;3649;48.798;9.798;2023-04-24T04:33:42;15.00;99.90
7216;DHT22;3649;48.798;9.798;2023-04-24T04:36:09;15.00;99.90
7216;DHT22;3649;48.798;9.798;2023-04-24T04:38:36;15.00;99.90
7216;DHT22;3649;48.798;9.798;2023-04-24T04:41:03;15.00;99.90
7216;DHT22;3649;48.798;9.798;2023-04-24T04:43:30;15.00;99.90
7216;DHT22;3649;48.798;9.798;2023-04-24T04:45:59;14.90;99.90
7216;DHT22;3649;48.798;9.798;2023-04-24T04:48:27;14.90;99.90
7216;DHT22;3649;48.798;9.798;2023-04-24T04:50:55;14.80;99.90
7216;DHT22;3649;48.798;9.798;2023-04-24T04:53:21;14.80;99.90
7216;DHT22;3649;48.798;9.798;2023-04-24T04:55:48;14.90;99.90
7216;DHT22;3649;48.798;9.798;2023-04-24T04:58:15;14.90;99.90
7216;DHT22;3649;48.798;9.798;2023-04-24T05:00:42;14.80;99.90
7216;DHT22;3649;48.798;9.798;2023-04-24T05:03:09;14.80;99.90
7216;DHT22;3649;48.798;9.798;2023-04-24T05:05:47;14.80;99.90
7216;DHT22;3649;48.798;9.798;2023-04-24T05:08:14;14.90;99.90
7216;DHT22;3649;48.798;9.798;2023-04-24T05:10:43;15.00;99.90
7216;DHT22;3649;48.798;9.798;2023-04-24T05:13:10;15.00;99.90
7216;DHT22;3649;48.798;9.798;2023-04-24T05:15:39;15.00;99.90
7216;DHT22;3649;48.798;9.798;2023-04-24T05:18:06;15.00;99.90
7216;DHT22;3649;48.798;9.798;2023-04-24T05:20:33;14.90;99.90
7216;DHT22;3649;48.798;9.798;2023-04-24T05:23:00;14.80;99.90
7216;DHT22;3649;48.798;9.798;2023-04-24T05:25:27;14.60;99.90
7216;DHT22;3649;48.798;9.798;2023-04-24T05:27:54;14.50;99.90
7216;DHT22;3649;48.798;9.798;2023-04-24T05:30:21;14.50;99.90
7216;DHT22;3649;48.798;9.798;2023-04-24T05:32:47;14.30;99.90
7216;DHT22;3649;48.798;9.798;2023-04-24T05:35:14;14.20;99.90
7216;DHT22;3649;48.798;9.798;2023-04-24T05:37:41;14.10;99.90
7216;DHT22;3649;48.798;9.798;2023-04-24T05:40:08;14.00;99.90
7216;DHT22;3649;48.798;9.798;2023-04-24T05:42:35;13.90;99.90
7216;DHT22;3649;48.798;9.798;2023-04-24T05:45:03;13.80;99.90
7216;DHT22;3649;48.798;9.798;2023-04-24T05:47:30;13.90;99.90
7216;DHT22;3649;48.798;9.798;2023-04-24T05:50:00;13.90;99.90
7216;DHT22;3649;48.798;9.798;2023-04-24T05:52:27;14.00;99.90
7216;DHT22;3649;48.798;9.798;2023-04-24T05:54:54;13.90;99.90
7216;DHT22;3649;48.798;9.798;2023-04-24T05:57:21;13.90;99.90
7216;DHT22;3649;48.798;9.798;2023-04-24T05:59:48;13.90;99.90
7216;DHT22;3649;48.798;9.798;2023-04-24T06:02:15;14.00;99.90
7216;DHT22;3649;48.798;9.798;2023-04-24T06:04:42;14.00;99.90
7216;DHT22;3649;48.798;9.798;2023-04-24T06:07:13;14.00;99.90
7216;DHT22;3649;48.798;9.798;2023-04-24T06:09:40;14.10;99.90
7216;DHT22;3649;48.798;9.798;2023-04-24T06:12:07;14.00;99.90
7216;DHT22;3649;48.798;9.798;2023-04-24T06:14:37;14.00;99.90
7216;DHT22;3649;48.798;9.798;2023-04-24T06:17:04;14.30;99.90
7216;DHT22;3649;48.798;9.798;2023-04-24T06:19:31;14.20;99.90
7216;DHT22;3649;48.798;9.798;2023-04-24T06:21:58;14.20;99.90
7216;DHT22;3649;48.798;9.798;2023-04-24T06:24:28;14.20;99.90
7216;DHT22;3649;48.798;9.798;2023-04-24T06:26:55;14.20;99.90
7216;DHT22;3649;48.798;9.798;2023-04-24T06:29:23;14.30;99.90
7216;DHT22;3649;48.798;9.798;2023-04-24T06:31:50;14.30;99.90
7216;DHT22;3649;48.798;9.798;2023-04-24T06:34:17;14.30;99.90
7216;DHT22;3649;48.798;9.798;2023-04-24T06:36:44;14.20;99.90
7216;DHT22;3649;48.798;9.798;2023-04-24T06:39:11;14.20;99.90
7216;DHT22;3649;48.798;9.798;2023-04-24T06:41:38;14.30;99.90
7216;DHT22;3649;48.798;9.798;2023-04-24T06:44:06;14.30;99.90
7216;DHT22;3649;48.798;9.798;2023-04-24T06:46:33;14.40;99.90
7216;DHT22;3649;48.798;9.798;2023-04-24T06:49:01;14.40;99.90
7216;DHT22;3649;48.798;9.798;2023-04-24T06:51:28;14.40;99.90
7216;DHT22;3649;48.798;9.798;2023-04-24T06:53:55;14.50;99.90
7216;DHT22;3649;48.798;9.798;2023-04-24T06:56:25;14.60;99.90
7216;DHT22;3649;48.798;9.798;2023-04-24T06:58:52;14.70;99.90
7216;DHT22;3649;48.798;9.798;2023-04-24T07:01:20;14.50;99.90
7216;DHT22;3649;48.798;9.798;2023-04-24T07:03:46;14.60;99.90
7216;DHT22;3649;48.798;9.798;2023-04-24T07:06:14;14.70;99.90
7216;DHT22;3649;48.798;9.798;2023-04-24T07:08:43;14.80;99.90
7216;DHT22;3649;48.798;9.798;2023-04-24T07:11:10;14.90;99.90
7216;DHT22;3649;48.798;9.798;2023-04-24T07:13:37;15.30;99.90
7216;DHT22;3649;48.798;9.798;2023-04-24T07:16:08;15.00;99.90
7216;DHT22;3649;48.798;9.798;2023-04-24T07:18:36;15.00;99.90
7216;DHT22;3649;48.798;9.798;2023-04-24T07:21:03;15.10;99.90
7216;DHT22;3649;48.798;9.798;2023-04-24T07:23:31;15.30;99.90
7216;DHT22;3649;48.798;9.798;2023-04-24T07:25:57;15.50;99.90
7216;DHT22;3649;48.798;9.798;2023-04-24T07:28:24;15.70;99.90
7216;DHT22;3649;48.798;9.798;2023-04-24T07:30:52;15.80;99.90
7216;DHT22;3649;48.798;9.798;2023-04-24T07:33:20;15.90;99.90
7216;DHT22;3649;48.798;9.798;2023-04-24T07:35:48;16.10;99.90
7216;DHT22;3649;48.798;9.798;2023-04-24T07:38:15;16.30;99.90
7216;DHT22;3649;48.798;9.798;2023-04-24T07:40:42;16.40;99.90
7216;DHT22;3649;48.798;9.798;2023-04-24T07:43:09;16.40;99.90
7216;DHT22;3649;48.798;9.798;2023-04-24T07:45:36;16.40;99.90
7216;DHT22;3649;48.798;9.798;2023-04-24T07:48:04;16.50;99.90
7216;DHT22;3649;48.798;9.798;2023-04-24T07:50:32;16.40;99.90
7216;DHT22;3649;48.798;9.798;2023-04-24T07:52:59;16.40;99.90
7216;DHT22;3649;48.798;9.798;2023-04-24T07:55:26;16.30;99.90
7216;DHT22;3649;48.798;9.798;2023-04-24T07:57:54;16.20;99.90
7216;DHT22;3649;48.798;9.798;2023-04-24T08:00:20;16.20;99.90
7216;DHT22;3649;48.798;9.798;2023-04-24T08:02:48;16.00;99.90
7216;DHT22;3649;48.798;9.798;2023-04-24T08:05:15;16.00;99.90
7216;DHT22;3649;48.798;9.798;2023-04-24T08:07:42;16.00;99.90
7216;DHT22;3649;48.798;9.798;2023-04-24T08:10:12;16.00;99.90
7216;DHT22;3649;48.798;9.798;2023-04-24T08:12:39;16.10;99.90
7216;DHT22;3649;48.798;9.798;2023-04-24T08:15:07;16.00;99.90
7216;DHT22;3649;48.798;9.798;2023-04-24T08:17:35;16.00;99.90
7216;DHT22;3649;48.798;9.798;2023-04-24T08:20:03;15.90;99.90
7216;DHT22;3649;48.798;9.798;2023-04-24T08:22:31;15.80;99.90
7216;DHT22;3649;48.798;9.798;2023-04-24T08:24:59;15.50;99.90
7216;DHT22;3649;48.798;9.798;2023-04-24T08:27:27;15.40;99.90
7216;DHT22;3649;48.798;9.798;2023-04-24T08:29:54;15.30;99.90
7216;DHT22;3649;48.798;9.798;2023-04-24T08:32:21;15.10;99.90
7216;DHT22;3649;48.798;9.798;2023-04-24T08:34:48;15.20;99.90
7216;DHT22;3649;48.798;9.798;2023-04-24T08:37:15;15.00;99.90
7216;DHT22;3649;48.798;9.798;2023-04-24T08:39:42;15.00;99.90
7216;DHT22;3649;48.798;9.798;2023-04-24T08:42:11;15.00;99.90
7216;DHT22;3649;48.798;9.798;2023-04-24T08:44:39;15.00;99.90
7216;DHT22;3649;48.798;9.798;2023-04-24T08:47:07;15.00;99.90
7216;DHT22;3649;48.798;9.798;2023-04-24T08:49:36;15.10;99.90
7216;DHT22;3649;48.798;9.798;2023-04-24T08:52:06;15.20;99.90
7216;DHT22;3649;48.798;9.798;2023-04-24T08:54:36;15.20;99.90
7216;DHT22;3649;48.798;9.798;2023-04-24T08:57:03;15.20;99.90
7216;DHT22;3649;48.798;9.798;2023-04-24T08:59:31;15.30;99.90
7216;DHT22;3649;48.798;9.798;2023-04-24T09:01:58;15.30;99.90
7216;DHT22;3649;48.798;9.798;2023-04-24T09:04:25;15.40;99.90
7216;DHT22;3649;48.798;9.798;2023-04-24T09:06:57;15.40;99.90
7216;DHT22;3649;48.798;9.798;2023-04-24T09:09:25;15.40;99.90
7216;DHT22;3649;48.798;9.798;2023-04-24T09:11:52;15.40;99.90
7216;DHT22;3649;48.798;9.798;2023-04-24T09:14:22;15.20;99.90
7216;DHT22;3649;48.798;9.798;2023-04-24T09:16:50;15.10;99.90
7216;DHT22;3649;48.798;9.798;2023-04-24T09:19:17;15.10;99.90
7216;DHT22;3649;48.798;9.798;2023-04-24T09:21:48;15.10;99.90
7216;DHT22;3649;48.798;9.798;2023-04-24T09:24:17;15.10;99.90
7216;DHT22;3649;48.798;9.798;2023-04-24T09:26:45;15.10;99.90
7216;DHT22;3649;48.798;9.798;2023-04-24T09:29:16;15.20;99.90
7216;DHT22;3649;48.798;9.798;2023-04-24T09:31:45;15.20;99.90
7216;DHT22;3649;48.798;9.798;2023-04-24T09:34:12;15.30;99.90
7216;DHT22;3649;48.798;9.798;2023-04-24T09:36:41;15.30;99.90
7216;DHT22;3649;48.798;9.798;2023-04-24T09:39:11;15.40;99.90
7216;DHT22;3649;48.798;9.798;2023-04-24T09:41:49;15.50;99.90
7216;DHT22;3649;48.798;9.798;2023-04-24T09:44:26;15.60;99.90
7216;DHT22;3649;48.798;9.798;2023-04-24T09:46:56;15.60;99.90
7216;DHT22;3649;48.798;9.798;2023-04-24T09:49:25;15.70;99.90
7216;DHT22;3649;48.798;9.798;2023-04-24T09:52:06;15.60;99.90
7216;DHT22;3649;48.798;9.798;2023-04-24T09:54:33;15.70;99.90
7216;DHT22;3649;48.798;9.798;2023-04-24T09:57:00;15.60;99.90
7216;DHT22;3649;48.798;9.798;2023-04-24T09:59:27;15.60;99.90
7216;DHT22;3649;48.798;9.798;2023-04-24T10:01:54;15.60;99.90
7216;DHT22;3649;48.798;9.798;2023-04-24T10:04:23;15.60;99.90
7216;DHT22;3649;48.798;9.798;2023-04-24T10:06:52;15.50;99.90
7216;DHT22;3649;48.798;9.798;2023-04-24T10:09:24;15.50;99.90
7216;DHT22;3649;48.798;9.798;2023-04-24T10:11:53;15.50;99.90
7216;DHT22;3649;48.798;9.798;2023-04-24T10:14:23;15.40;99.90
7216;DHT22;3649;48.798;9.798;2023-04-24T10:16:54;15.30;99.90
7216;DHT22;3649;48.798;9.798;2023-04-24T10:19:21;15.30;99.90
7216;DHT22;3649;48.798;9.798;2023-04-24T10:21:52;15.20;99.90
7216;DHT22;3649;48.798;9.798;2023-04-24T10:24:21;15.10;99.90
7216;DHT22;3649;48.798;9.798;2023-04-24T10:26:48;14.90;99.90
7216;DHT22;3649;48.798;9.798;2023-04-24T10:29:17;15.00;99.90
7216;DHT22;3649;48.798;9.798;2023-04-24T10:31:45;14.80;99.90
7216;DHT22;3649;48.798;9.798;2023-04-24T10:34:13;14.80;99.90
7216;DHT22;3649;48.798;9.798;2023-04-24T10:36:51;14.80;99.90
7216;DHT22;3649;48.798;9.798;2023-04-24T10:39:21;14.80;99.90
7216;DHT22;3649;48.798;9.798;2023-04-24T10:41:54;14.90;99.90
7216;DHT22;3649;48.798;9.798;2023-04-24T10:44:23;14.90;99.90
7216;DHT22;3649;48.798;9.798;2023-04-24T10:46:53;15.00;99.90
7216;DHT22;3649;48.798;9.798;2023-04-24T10:49:31;15.10;99.90
7216;DHT22;3649;48.798;9.798;2023-04-24T10:52:03;15.20;99.90
7216;DHT22;3649;48.798;9.798;2023-04-24T10:54:42;15.10;99.90
7216;DHT22;3649;48.798;9.798;2023-04-24T10:59:49;14.90;99.90
7216;DHT22;3649;48.798;9.798;2023-04-24T11:02:18;14.90;99.90
7216;DHT22;3649;48.798;9.798;2023-04-24T11:04:45;14.70;99.90
7216;DHT22;3649;48.798;9.798;2023-04-24T11:07:13;14.70;99.90
7216;DHT22;3649;48.798;9.798;2023-04-24T11:09:42;14.80;99.90
7216;DHT22;3649;48.798;9.798;2023-04-24T11:12:11;14.80;99.90
7216;DHT22;3649;48.798;9.798;2023-04-24T11:17:33;15.10;99.90
7216;DHT22;3649;48.798;9.798;2023-04-24T11:20:06;15.20;99.90
7216;DHT22;3649;48.798;9.798;2023-04-24T11:22:53;15.40;99.90
7216;DHT22;3649;48.798;9.798;2023-04-24T11:25:22;15.40;99.90
7216;DHT22;3649;48.798;9.798;2023-04-24T11:28:03;15.40;99.90
7216;DHT22;3649;48.798;9.798;2023-04-24T11:30:31;15.50;99.90
7216;DHT22;3649;48.798;9.798;2023-04-24T11:33:03;15.50;99.90
7216;DHT22;3649;48.798;9.798;2023-04-24T11:35:35;15.60;99.90
7216;DHT22;3649;48.798;9.798;2023-04-24T11:38:04;15.50;99.90
7216;DHT22;3649;48.798;9.798;2023-04-24T11:40:34;15.40;99.90
7216;DHT22;3649;48.798;9.798;2023-04-24T11:43:04;15.40;99.90
7216;DHT22;3649;48.798;9.798;2023-04-24T11:45:33;15.40;99.90
7216;DHT22;3649;48.798;9.798;2023-04-24T11:48:00;15.40;99.90
7216;DHT22;3649;48.798;9.798;2023-04-24T11:50:29;15.30;99.90
7216;DHT22;3649;48.798;9.798;2023-04-24T11:52:56;15.40;99.90
7216;DHT22;3649;48.798;9.798;2023-04-24T11:55:24;15.30;99.90
7216;DHT22;3649;48.798;9.798;2023-04-24T11:57:56;15.30;99.90
7216;DHT22;3649;48.798;9.798;2023-04-24T12:00:26;15.50;99.90
7216;DHT22;3649;48.798;9.798;2023-04-24T12:03:04;15.40;99.90
7216;DHT22;3649;48.798;9.798;2023-04-24T12:05:33;15.40;99.90
7216;DHT22;3649;48.798;9.798;2023-04-24T12:08:01;15.30;99.90
7216;DHT22;3649;48.798;9.798;2023-04-24T12:10:29;15.30;99.90
7216;DHT22;3649;48.798;9.798;2023-04-24T12:12:58;15.40;99.90
7216;DHT22;3649;48.798;9.798;2023-04-24T12:15:25;15.50;99.90
7216;DHT22;3649;48.798;9.798;2023-04-24T12:17:53;15.40;99.90
7216;DHT22;3649;48.798;9.798;2023-04-24T12:20:30;15.40;99.90
7216;DHT22;3649;48.798;9.798;2023-04-24T12:22:58;15.60;99.90
7216;DHT22;3649;48.798;9.798;2023-04-24T12:25:30;15.30;99.90
7216;DHT22;3649;48.798;9.798;2023-04-24T12:30:39;15.40;99.90
7216;DHT22;3649;48.798;9.798;2023-04-24T12:33:06;15.40;99.90
7216;DHT22;3649;48.798;9.798;2023-04-24T12:35:33;15.50;99.90
7216;DHT22;3649;48.798;9.798;2023-04-24T12:38:09;15.60;99.90
7216;DHT22;3649;48.798;9.798;2023-04-24T12:40:37;15.70;99.90
7216;DHT22;3649;48.798;9.798;2023-04-24T12:43:16;15.70;99.90
7216;DHT22;3649;48.798;9.798;2023-04-24T12:45:43;15.80;99.90
7216;DHT22;3649;48.798;9.798;2023-04-24T12:48:11;15.70;99.90
7216;DHT22;3649;48.798;9.798;2023-04-24T12:50:41;15.70;99.90
7216;DHT22;3649;48.798;9.798;2023-04-24T12:53:11;15.70;99.90
7216;DHT22;3649;48.798;9.798;2023-04-24T12:55:38;15.60;99.90
7216;DHT22;3649;48.798;9.798;2023-04-24T12:58:05;15.60;99.90
7216;DHT22;3649;48.798;9.798;2023-04-24T13:00:33;15.50;99.90
7216;DHT22;3649;48.798;9.798;2023-04-24T13:03:00;15.40;99.90
7216;DHT22;3649;48.798;9.798;2023-04-24T13:05:27;15.50;99.90
7216;DHT22;3649;48.798;9.798;2023-04-24T13:07:54;15.50;99.90
7216;DHT22;3649;48.798;9.798;2023-04-24T13:10:21;15.50;99.90
7216;DHT22;3649;48.798;9.798;2023-04-24T13:12:48;15.60;99.90
7216;DHT22;3649;48.798;9.798;2023-04-24T13:15:15;15.60;99.90
7216;DHT22;3649;48.798;9.798;2023-04-24T13:17:42;15.80;99.90
7216;DHT22;3649;48.798;9.798;2023-04-24T13:20:09;15.70;99.90
7216;DHT22;3649;48.798;9.798;2023-04-24T13:22:36;15.70;99.90
7216;DHT22;3649;48.798;9.798;2023-04-24T13:25:04;15.70;99.90
7216;DHT22;3649;48.798;9.798;2023-04-24T13:27:32;15.60;99.90
7216;DHT22;3649;48.798;9.798;2023-04-24T13:29:59;15.60;99.90
7216;DHT22;3649;48.798;9.798;2023-04-24T13:32:26;15.60;99.90
7216;DHT22;3649;48.798;9.798;2023-04-24T13:34:54;15.50;99.90
7216;DHT22;3649;48.798;9.798;2023-04-24T13:37:21;15.50;99.90
7216;DHT22;3649;48.798;9.798;2023-04-24T13:39:49;15.40;99.90
7216;DHT22;3649;48.798;9.798;2023-04-24T13:42:17;16.70;99.90
7216;DHT22;3649;48.798;9.798;2023-04-24T13:44:44;15.30;99.90
7216;DHT22;3649;48.798;9.798;2023-04-24T13:47:11;15.40;99.90
7216;DHT22;3649;48.798;9.798;2023-04-24T13:49:38;15.30;99.90
7216;DHT22;3649;48.798;9.798;2023-04-24T13:52:05;15.30;99.90
7216;DHT22;3649;48.798;9.798;2023-04-24T13:54:32;15.20;99.90
7216;DHT22;3649;48.798;9.798;2023-04-24T13:56:59;15.30;99.90
7216;DHT22;3649;48.798;9.798;2023-04-24T13:59:27;15.20;99.90
7216;DHT22;3649;48.798;9.798;2023-04-24T14:01:54;15.20;99.90
7216;DHT22;3649;48.798;9.798;2023-04-24T14:04:21;15.20;99.90
7216;DHT22;3649;48.798;9.798;2023-04-24T14:06:48;15.10;99.90
7216;DHT22;3649;48.798;9.798;2023-04-24T14:09:15;14.90;99.90
7216;DHT22;3649;48.798;9.798;2023-04-24T14:11:42;14.80;99.90
7216;DHT22;3649;48.798;9.798;2023-04-24T14:14:09;14.70;99.90
7216;DHT22;3649;48.798;9.798;2023-04-24T14:16:36;14.60;99.90
7216;DHT22;3649;48.798;9.798;2023-04-24T14:19:04;14.60;99.90
7216;DHT22;3649;48.798;9.798;2023-04-24T14:21:32;14.60;99.90
7216;DHT22;3649;48.798;9.798;2023-04-24T14:23:59;14.70;99.90
7216;DHT22;3649;48.798;9.798;2023-04-24T14:26:26;14.70;99.90
7216;DHT22;3649;48.798;9.798;2023-04-24T14:28:53;14.80;99.90
7216;DHT22;3649;48.798;9.798;2023-04-24T14:31:39;15.00;99.90
7216;DHT22;3649;48.798;9.798;2023-04-24T14:34:06;15.00;99.90
7216;DHT22;3649;48.798;9.798;2023-04-24T14:36:33;15.10;99.90
7216;DHT22;3649;48.798;9.798;2023-04-24T14:39:00;15.20;99.90
7216;DHT22;3649;48.798;9.798;2023-04-24T14:41:29;15.30;99.90
7216;DHT22;3649;48.798;9.798;2023-04-24T14:43:56;15.20;99.90
7216;DHT22;3649;48.798;9.798;2023-04-24T14:46:23;15.30;99.90
7216;DHT22;3649;48.798;9.798;2023-04-24T14:48:50;15.20;99.90
7216;DHT22;3649;48.798;9.798;2023-04-24T14:51:17;15.10;99.90
7216;DHT22;3649;48.798;9.798;2023-04-24T14:53:44;14.80;99.90
7216;DHT22;3649;48.798;9.798;2023-04-24T14:56:14;14.60;99.90
7216;DHT22;3649;48.798;9.798;2023-04-24T14:58:41;14.40;99.90
7216;DHT22;3649;48.798;9.798;2023-04-24T15:01:07;14.20;99.90
7216;DHT22;3649;48.798;9.798;2023-04-24T15:03:34;14.20;99.90
7216;DHT22;3649;48.798;9.798;2023-04-24T15:06:01;14.00;99.90
7216;DHT22;3649;48.798;9.798;2023-04-24T15:08:28;14.00;99.90
7216;DHT22;3649;48.798;9.798;2023-04-24T15:10:55;14.10;99.90
7216;DHT22;3649;48.798;9.798;2023-04-24T15:13:22;14.80;99.90
7216;DHT22;3649;48.798;9.798;2023-04-24T15:15:48;14.30;99.90
7216;DHT22;3649;48.798;9.798;2023-04-24T15:18:15;14.50;99.90
7216;DHT22;3649;48.798;9.798;2023-04-24T15:20:42;14.50;99.90
7216;DHT22;3649;48.798;9.798;2023-04-24T15:23:09;14.60;99.90
7216;DHT22;3649;48.798;9.798;2023-04-24T15:25:37;14.60;99.90
7216;DHT22;3649;48.798;9.798;2023-04-24T15:28:05;14.70;99.90
7216;DHT22;3649;48.798;9.798;2023-04-24T15:30:32;14.80;99.90
7216;DHT22;3649;48.798;9.798;2023-04-24T15:33:00;15.00;99.90
7216;DHT22;3649;48.798;9.798;2023-04-24T15:35:27;15.00;99.90
7216;DHT22;3649;48.798;9.798;2023-04-24T15:37:54;14.90;99.90
7216;DHT22;3649;48.798;9.798;2023-04-24T15:40:21;15.20;99.90
7216;DHT22;3649;48.798;9.798;2023-04-24T15:42:48;15.10;99.90
7216;DHT22;3649;48.798;9.798;2023-04-24T15:45:15;15.00;99.90
7216;DHT22;3649;48.798;9.798;2023-04-24T15:47:44;15.10;99.90
7216;DHT22;3649;48.798;9.798;2023-04-24T15:50:13;15.20;99.90
7216;DHT22;3649;48.798;9.798;2023-04-24T15:52:43;15.10;99.90
7216;DHT22;3649;48.798;9.798;2023-04-24T15:55:10;15.30;99.90
7216;DHT22;3649;48.798;9.798;2023-04-24T15:57:37;15.10;99.90
7216;DHT22;3649;48.798;9.798;2023-04-24T16:00:04;15.10;99.90
7216;DHT22;3649;48.798;9.798;2023-04-24T16:02:36;15.10;99.90
7216;DHT22;3649;48.798;9.798;2023-04-24T16:05:06;15.10;99.90
7216;DHT22;3649;48.798;9.798;2023-04-24T16:07:34;15.10;99.90
7216;DHT22;3649;48.798;9.798;2023-04-24T16:10:01;15.10;99.90
7216;DHT22;3649;48.798;9.798;2023-04-24T16:12:28;15.10;99.90
7216;DHT22;3649;48.798;9.798;2023-04-24T16:14:55;15.20;99.90